Terminal Aerodrome Forecast
Issued by NWS

Home | Current Version | Previous Version | Text Only | Print | Product List | Glossary On
Versions: 1 2 3 4 5 6 7 8 9 10 11 12
000
FTAK31 PAFA 261125
TAFABT
TAF
PABT 261125Z 2612/2712 14004KT P6SM FEW060 FEW160 BKN230
     FM261900 22005KT P6SM -SHRA SCT035 BKN060 OVC120
     FM270700 VRB03KT P6SM SCT060 BKN120 BKN250=

USA.gov is the U.S. government's official web portal to all federal, state and local government web resources and services.